Pine Mountain Valley, Georgia
Current Conditions -  °F | °C
As of 6:51 PM on Monday 22 Dec 2014 (Local Time) from KCSG Reporting Station
Overcast Overcast  
Wind Chill: 45°   Ceiling: 300
Heat Index: 49°   Visibility: 7mi
Dew Point: 48°   Wind: 8mph
Humidity: 97%   Direction: 100°E
Pressure: 29.9"   Gusts: NA
Location:  32.8°N, 84.82°W
Report Text: KCSG 222351Z 10007KT 7SM OVC003 09/09 A2990 RMK AO2 SLP122 60006 T00940089 10100 20094 51008
Loading
Personal Weather Stations






























Interactive Weather Map New forecast layout! Learn more

10-Day Weather Forecast

Advertisements
Track Severe Weather on mobile